M I D A S
Marine Information and Data Acquisition System
Tripno 183 of the Zeeleeuw from 2001-12-04 09:15:00 to 2001-12-04 16:20:00
Back to CruiseResearch ActivitiesStationsMapUnderway DataData graphs

EquipmentUnitsComment
TimeDGPSUTC
LatitudeDGPSDM.mWGS84
LongitudeDGPSDM.mWGS84
HeadingGyrodeg 
SOGDGPSknotsSpeed over ground
COGDGPSdegCourse over ground
DepthEcho soundermeters200 kHz
Missing or incorrect values are displayed as -999
Navigation data collected by the RV Zeeleeuw from 2001-12-04 09:15:00 to 2001-12-04 16:20:00
Time Latitude Longitude Heading SOG COG Depth
2001-12-04 09:16:01 51°13.426 2°50.822 329.7 0.2 262.6 9.6
2001-12-04 09:17:02 51°13.436 2°50.79 298.3 2.6 290.8 9.5
2001-12-04 09:18:01 51°13.415 2°50.691 233.7 6.1 233.4 9.5
2001-12-04 09:19:02 51°13.304 2°50.501 234.5 12.1 231.4 9.6
2001-12-04 09:20:01 51°13.192 2°50.199 241 13.9 239.2 9.8
2001-12-04 09:21:02 51°13.063 2°49.88 239.8 14.1 237.6 10
2001-12-04 09:22:02 51°12.937 2°49.561 240.2 14.2 237.8 10.2
2001-12-04 09:23:02 51°12.81 2°49.242 239.7 14.2 237.2 9.9
2001-12-04 09:24:02 51°12.681 2°48.921 239.8 14.4 237.1 10.3
2001-12-04 09:25:02 51°12.553 2°48.598 240 14.5 238.1 10.6
2001-12-04 09:26:01 51°12.427 2°48.279 239.7 14.4 237.1 10.7
2001-12-04 09:27:01 51°12.298 2°47.956 239.2 14.5 237.2 10.8
2001-12-04 09:28:02 51°12.168 2°47.627 240 14.4 237.9 10.9
2001-12-04 09:29:01 51°12.042 2°47.309 241.5 14.4 238.4 11
2001-12-04 09:30:02 51°11.921 2°46.971 242 14.5 240.1 10.9
2001-12-04 09:31:02 51°11.802 2°46.639 243.2 14.4 240.9 10.7
2001-12-04 09:32:02 51°11.685 2°46.305 243.7 14.4 241.6 10.7
2001-12-04 09:33:02 51°11.57 2°45.972 243.5 14.3 241.2 10.5
2001-12-04 09:34:02 51°11.457 2°45.639 244.3 14.3 242.1 10.2
2001-12-04 09:35:02 51°11.35 2°45.302 246.2 14.2 242.9 10
2001-12-04 09:36:02 51°11.243 2°44.964 245.8 14.3 243.3 9.7
2001-12-04 09:37:01 51°11.136 2°44.634 246.5 14.3 243.2 9.5
2001-12-04 09:38:01 51°11.028 2°44.298 246.3 14.2 243.2 9.2
2001-12-04 09:39:02 51°10.927 2°43.952 251 14.2 247.9 8.9
2001-12-04 09:40:02 51°10.835 2°43.605 249.7 14.2 246.7 8.9
2001-12-04 09:41:01 51°10.743 2°43.266 250 14.2 246.8 8.8
2001-12-04 09:42:02 51°10.655 2°42.913 252.2 14.1 248.3 8.7
2001-12-04 09:43:02 51°10.569 2°42.565 252.8 14.1 249.3 8.6
2001-12-04 09:44:02 51°10.491 2°42.212 254 14.2 250.8 8.7
2001-12-04 09:45:02 51°10.414 2°41.86 253.3 14.1 250 8.9
2001-12-04 09:46:02 51°10.335 2°41.508 254.2 14.2 250.6 8.9
2001-12-04 09:47:02 51°10.243 2°41.163 246.3 14.2 244.3 8.8
2001-12-04 09:48:01 51°10.131 2°40.844 240.2 13.9 238.5 8.8
2001-12-04 09:49:02 51°9.999 2°40.537 235.5 13.7 234 8.6
2001-12-04 09:50:02 51°9.91 2°40.204 259.2 13.8 255.7 8.6
2001-12-04 09:51:02 51°9.849 2°39.85 256 13.9 253 9
2001-12-04 09:52:01 51°9.781 2°39.502 255.8 14 252.4 9.1
2001-12-04 09:53:02 51°9.717 2°39.138 258.3 14.1 254.9 9.3
2001-12-04 09:54:02 51°9.655 2°38.778 257.8 14.1 254.7 9.8
2001-12-04 09:55:02 51°9.593 2°38.418 257.3 14.1 254.4 10
2001-12-04 09:56:01 51°9.531 2°38.063 258.2 14.2 254.8 10.3
2001-12-04 09:57:02 51°9.47 2°37.695 257.3 14.2 254.7 10.8
2001-12-04 09:58:01 51°9.409 2°37.339 259.8 14.1 256.1 11.6
2001-12-04 09:59:02 51°9.352 2°36.967 260 14.2 256 12.8
2001-12-04 10:00:01 51°9.295 2°36.605 259.8 14.4 255.9 14.1
2001-12-04 10:01:02 51°9.243 2°36.228 261.7 14.3 257.1 14.7
2001-12-04 10:02:02 51°9.192 2°35.856 261.5 14.4 257.3 14.8
2001-12-04 10:03:01 51°9.142 2°35.491 262.2 14.3 257.9 15.2
2001-12-04 10:04:02 51°9.09 2°35.115 261.7 14.3 257.3 15.6
2001-12-04 10:05:02 51°9.039 2°34.746 261.7 14.3 257.6 15.8
2001-12-04 10:06:02 51°8.989 2°34.377 262.2 14.3 257.7 14.9
2001-12-04 10:07:02 51°8.937 2°34.008 262.2 14.3 257.5 14.9
2001-12-04 10:08:02 51°8.884 2°33.641 261.3 14.2 256.8 16.1
2001-12-04 10:09:02 51°8.839 2°33.356 260.7 7.9 254 17.1
2001-12-04 10:10:02 51°8.82 2°33.282 277.2 0.8 168.1 -999
2001-12-04 10:11:02 51°8.804 2°33.296 300.3 1 153.7 -999
2001-12-04 10:12:02 51°8.805 2°33.267 307.8 0.9 277.6 -999
2001-12-04 10:13:01 51°8.805 2°33.253 331.3 0.4 260.8 17.6
2001-12-04 10:14:02 51°8.802 2°33.251 352.5 0.4 188.5 17.5
2001-12-04 10:15:02 51°8.794 2°33.25 5.3 0.5 184 17.5
2001-12-04 10:16:02 51°8.787 2°33.251 8.3 0.4 175 17.5
2001-12-04 10:17:01 51°8.781 2°33.251 6.7 0.4 196.8 17.6
2001-12-04 10:18:02 51°8.775 2°33.249 1.3 0.3 198.6 17.6
2001-12-04 10:19:02 51°8.77 2°33.246 358.3 0.4 197.7 17.5
2001-12-04 10:20:01 51°8.764 2°33.243 354.2 0.3 204.7 17.7
2001-12-04 10:21:02 51°8.758 2°33.243 353.5 0.5 179 17.7
2001-12-04 10:22:01 51°8.752 2°33.243 353.7 0.4 168.4 17.7
2001-12-04 10:23:02 51°8.744 2°33.245 355 0.5 159.2 17.5
2001-12-04 10:24:01 51°8.736 2°33.249 0.7 0.5 163.8 17.4
2001-12-04 10:25:02 51°8.732 2°33.251 358.5 0.4 356.9 17.2
2001-12-04 10:26:02 51°8.771 2°33.21 325.3 3.9 317.5 17.8
2001-12-04 10:27:02 51°8.817 2°33.132 319 3.8 310.3 18
2001-12-04 10:28:02 51°8.855 2°33.054 316.8 3.7 307.2 18
2001-12-04 10:29:01 51°8.886 2°32.987 317.5 2.5 307.7 18.2
2001-12-04 10:30:03 51°8.884 2°32.982 341.3 0.6 146.8 -999
2001-12-04 10:31:02 51°8.876 2°32.987 2.5 0.5 156.5 18
2001-12-04 10:32:02 51°8.869 2°32.991 7.8 0.3 155.4 18.2
2001-12-04 10:33:02 51°8.865 2°32.996 6 0.2 153.5 18.3
2001-12-04 10:34:02 51°8.862 2°32.998 1 0.2 155.9 18.1
2001-12-04 10:35:02 51°8.859 2°33.002   0.2 134.2 18.1
2001-12-04 10:36:02 51°8.857 2°33.005 357.5 0.2 125.9 18.2
2001-12-04 10:37:01 51°8.855 2°33.009 356.5 0.2 153.4 18.2
2001-12-04 10:38:02 51°8.852 2°33.013 357.2 0.3 136.9 18.2
2001-12-04 10:39:02 51°8.847 2°33.018 2.2 0.3 147.2 18.4
2001-12-04 10:40:02 51°8.843 2°33.024 4.7 0.3 137.8 18.3
2001-12-04 10:41:02 51°8.841 2°33.028 359.3 0.1 155 18.4
2001-12-04 10:42:02 51°8.838 2°33.033 0.2 0.3 134.7 18.2
2001-12-04 10:43:02 51°8.834 2°33.038 359.2 0.3 132.2 18.4
2001-12-04 10:44:02 51°8.831 2°33.044 357.7 0.3 146.1 18.3
2001-12-04 10:45:02 51°8.828 2°33.048 357.3 0.1 132.7 18.5
2001-12-04 10:46:02 51°8.826 2°33.053 357.3 0.3 123.1 18.3
2001-12-04 10:47:02 51°8.823 2°33.056 356.8 0.2 150.4 18.3
2001-12-04 10:48:02 51°8.821 2°33.06 354.3 0.3 140.2 18.4
2001-12-04 10:49:02 51°8.816 2°33.065 357.5 0.4 149.5 18.4
2001-12-04 10:50:02 51°8.811 2°33.072 356.8 0.4 129.1 18.3
2001-12-04 10:51:02 51°8.807 2°33.079 358.2 0.4 112.5 18.1
2001-12-04 10:52:02 51°8.804 2°33.087 3.2 0.3 126.1 18.5
2001-12-04 10:53:02 51°8.802 2°33.095 2.3 0.3 109.9 18.5
2001-12-04 10:54:02 51°8.801 2°33.102 359.3 0.3 97.7 18.3
2001-12-04 10:55:02 51°8.799 2°33.108 356.8 0.3 116.1 18.2
2001-12-04 10:56:02 51°8.798 2°33.115 353.3 0.3 104 18.4
2001-12-04 10:57:02 51°8.797 2°33.122 353.8 0.3 100.6 18.4
2001-12-04 10:58:02 51°8.795 2°33.129 355.7 0.3 121.2 18.3
2001-12-04 10:59:01 51°8.792 2°33.138 356.3 0.4 114.9 18.4
2001-12-04 11:00:01 51°8.79 2°33.147 357.7 0.4 111.8 18.6
2001-12-04 11:01:01 51°8.788 2°33.156   0.3 98.8 18.4
2001-12-04 11:02:02 51°8.787 2°33.165 356.7 0.3 100 18.4
2001-12-04 11:03:02 51°8.785 2°33.171 356.5 0.3 101.3 18.5
2001-12-04 11:04:02 51°8.784 2°33.182 359 0.4 94.8 18.3
2001-12-04 11:05:02 51°8.783 2°33.192 358.2 0.4 97.6 18.5
2001-12-04 11:06:02 51°8.782 2°33.201 356 0.4 104.8 18.5
2001-12-04 11:07:02 51°8.778 2°33.214 359.8 0.6 120.7 18.6
2001-12-04 11:08:01 51°8.774 2°33.228 1.8 0.5 113.2 18.7
2001-12-04 11:09:02 51°8.771 2°33.241 359.2 0.5 106.4 18.7
2001-12-04 11:10:02 51°8.769 2°33.254 0.8 0.6 99.1 18.5
2001-12-04 11:11:02 51°8.768 2°33.267   0.5 99.9 18.9
2001-12-04 11:12:02 51°8.769 2°33.281 356.2 0.5 72.9 18.9
2001-12-04 11:13:02 51°8.772 2°33.294 357.2 0.6 80.8 18.6
2001-12-04 11:14:02 51°8.773 2°33.309 359.2 0.6 83.3 18.5
2001-12-04 11:15:02 51°8.774 2°33.325 357.2 0.6 87.3 18.6
2001-12-04 11:16:01 51°8.775 2°33.341 355.2 0.6 82.2 18.5
2001-12-04 11:17:02 51°8.777 2°33.357 353.8 0.6 78.8 18.5
2001-12-04 11:18:02 51°8.778 2°33.373 353.5 0.6 80.4 18.4
2001-12-04 11:19:01 51°8.778 2°33.39 354.5 0.6 85.3 18.3
2001-12-04 11:20:02 51°8.779 2°33.41 356.5 0.7 85.6 18.2
2001-12-04 11:21:01 51°8.781 2°33.428 356.3 0.8 81.3 18
2001-12-04 11:22:01 51°8.783 2°33.446 353.3 0.7 71.1 18.3
2001-12-04 11:23:02 51°8.786 2°33.465 353 0.8 77.4 18
2001-12-04 11:24:02 51°8.788 2°33.486 358.7 0.8 78.2 18.1
2001-12-04 11:25:02 51°8.79 2°33.506 355.5 0.8 83.1 17.6
2001-12-04 11:26:02 51°8.792 2°33.527 353.3 0.7 81.9 18
2001-12-04 11:27:02 51°8.794 2°33.55 357.7 0.8 85.1 17.7
2001-12-04 11:28:02 51°8.795 2°33.575 1.8 0.9 88.5 17.3
2001-12-04 11:29:02 51°8.796 2°33.598 0.7 0.9 86.2 17.4
2001-12-04 11:30:02 51°8.796 2°33.622   0.9 91.6 17.1
2001-12-04 11:31:02 51°8.797 2°33.646 1 0.9 81.2 17
2001-12-04 11:32:02 51°8.799 2°33.673 4 1 80.3 17.1
2001-12-04 11:33:02 51°8.802 2°33.698 359.3 1 77.5 17.1
2001-12-04 11:34:02 51°8.806 2°33.723 355.5 1 74.4 16.9
2001-12-04 11:35:02 51°8.81 2°33.747 355.8 1 80.5 16.7
2001-12-04 11:36:02 51°8.814 2°33.774 356.5 1.1 77.6 16.8
2001-12-04 11:37:02 51°8.818 2°33.801 355.5 1.1 78.7 17
2001-12-04 11:38:02 51°8.819 2°33.831 355.5 1.1 87.5 16.8
2001-12-04 11:39:01 51°8.821 2°33.861 359.7 1.1 82.2 16.9
2001-12-04 11:40:02 51°8.824 2°33.892 5.8 1.2 80.5 17.3
2001-12-04 11:41:01 51°8.829 2°33.922 5 1.2 76.8 17.3
2001-12-04 11:42:02 51°8.834 2°33.954 3 1.2 72.9 16.9
2001-12-04 11:43:02 51°8.839 2°33.985 3 1.3 76.4 17
2001-12-04 11:44:02 51°8.845 2°34.016 0.8 1.3 73.1 17.2
2001-12-04 11:45:01 51°8.852 2°34.047 359 1.3 70.7 17.1
2001-12-04 11:46:02 51°8.859 2°34.077 356.8 1.3 69.5 17.3
2001-12-04 11:47:02 51°8.866 2°34.109 356.2 1.3 69.8 17.2
2001-12-04 11:48:02 51°8.873 2°34.142 356.3 1.4 72.1 17.1
2001-12-04 11:49:02 51°8.88 2°34.176 359.8 1.3 74.2 17.4
2001-12-04 11:50:02 51°8.886 2°34.212 1.5 1.4 75.3 17.8
2001-12-04 11:51:01 51°8.893 2°34.247   1.4 68.9 17.3
2001-12-04 11:52:02 51°8.901 2°34.284 0.3 1.5 69.3 18.2
2001-12-04 11:53:02 51°8.91 2°34.319 356.5 1.4 67.4 17.5
2001-12-04 11:54:02 51°8.93 2°34.348 341.7 2 19.3 17
2001-12-04 11:55:01 51°8.969 2°34.339 310.7 3 330.2 17.6
2001-12-04 11:56:02 51°8.968 2°34.236 239 4.9 234.9 17.5
2001-12-04 11:57:02 51°8.895 2°34.13 239.7 6.3 229.5 17.4
2001-12-04 11:58:02 51°8.824 2°33.995 232.8 6.9 225.1 17.7
2001-12-04 11:59:02 51°8.753 2°33.856 240.2 6.7 234.1 17.7
2001-12-04 12:00:02 51°8.685 2°33.716 239.5 6.7 232.8 17.9
2001-12-04 12:01:02 51°8.609 2°33.581 234.8 6.8 227 17.7
2001-12-04 12:02:02 51°8.535 2°33.443 239.3 6.7 232.2 17.9
2001-12-04 12:03:02 51°8.47 2°33.306 238.7 6.6 231.5 18
2001-12-04 12:04:02 51°8.406 2°33.16 246.3 6.7 239.4 17.8
2001-12-04 12:05:02 51°8.343 2°33.016 236.8 6.7 229.6 18.1
2001-12-04 12:06:02 51°8.272 2°32.877 239.8 6.8 232.3 18.3
2001-12-04 12:07:02 51°8.199 2°32.74 239.2 6.7 230.5 19
2001-12-04 12:08:02 51°8.142 2°32.588 243.7 6.7 238.8 19.3
2001-12-04 12:09:02 51°8.077 2°32.441 243 6.8 236.9 19.8
2001-12-04 12:10:02 51°8.01 2°32.296 235.5 6.7 228.4 18
2001-12-04 12:11:02 51°7.933 2°32.166 240.2 6.7 232.9 18.8
2001-12-04 12:12:02 51°7.874 2°32.017 240.7 6.6 235.2 20.1
2001-12-04 12:13:02 51°7.803 2°31.877 238.2 7 231.6 19.6
2001-12-04 12:14:02 51°7.722 2°31.694 238.8 8.9 233.7 19.1
2001-12-04 12:15:02 51°7.636 2°31.501 239.3 8.8 234.5 18.2
2001-12-04 12:16:02 51°7.522 2°31.35 228.7 9 220.4 15.3
2001-12-04 12:17:02 51°7.413 2°31.186 235.2 9 228.3 14.4
2001-12-04 12:18:02 51°7.311 2°31.009 234.3 9.1 227.7 14
2001-12-04 12:19:02 51°7.191 2°30.869 210 9.3 203.1 13.6
2001-12-04 12:20:02 51°7.061 2°30.745 222.2 9 214.2 12.8
2001-12-04 12:21:02 51°6.932 2°30.621 213.5 9.3 205.6 12
2001-12-04 12:22:02 51°6.805 2°30.485 224 9.1 216.5 11.3
2001-12-04 12:23:02 51°6.683 2°30.341 219.2 9.3 211.3 11
2001-12-04 12:24:02 51°6.559 2°30.197 227 9.2 220 10.8
2001-12-04 12:25:02 51°6.423 2°30.084 200.7 9.3 193.1 10.4
2001-12-04 12:26:02 51°6.26 2°30.119 175 10.4 164.7 10
2001-12-04 12:27:02 51°6.092 2°30.199 174.8 10.5 164.1 13.5
2001-12-04 12:28:02 51°5.963 2°30.369 119.7 11.1 112.4 16.2
2001-12-04 12:29:02 51°6.009 2°30.671 67.7 12.5 64.2 15.4
2001-12-04 12:30:02 51°6.121 2°30.982 64.3 14.3 61.3 14.4
2001-12-04 12:31:02 51°6.242 2°31.315 64 14.9 62 14.3
2001-12-04 12:32:02 51°6.372 2°31.658 70.3 15.2 64.5 13.6
2001-12-04 12:33:02 51°6.47 2°32.03 73 15.1 68.2 13.3
2001-12-04 12:34:02 51°6.592 2°32.379 57.8 15 56 12.9
2001-12-04 12:35:02 51°6.713 2°32.709 74.7 12.9 69.2 12.8
2001-12-04 12:36:01 51°6.741 2°32.866 46.3 3 66.5 12.9
2001-12-04 12:37:03 51°6.744 2°32.912 25 3.4 53.5 -999
2001-12-04 12:38:01 51°6.795 2°32.951 334.5 2.4 34.5 13
2001-12-04 12:39:02 51°6.815 2°33.002 332 3.2 14.4 12.9
2001-12-04 12:40:02 51°6.839 2°32.959 244.3 2.1 240.8 13
2001-12-04 12:41:02 51°6.825 2°32.976 210.7 1.5 111.2 13
2001-12-04 12:42:02 51°6.816 2°33.014 219.8 1.4 113.5 12.9
2001-12-04 12:43:02 51°6.807 2°33.04 231.3 0.9 124 13.1
2001-12-04 12:44:02 51°6.796 2°33.056 231.3 0.9 143 12.8
2001-12-04 12:45:02 51°6.782 2°33.067 231.7 0.9 161.8 12.8
2001-12-04 12:46:02 51°6.766 2°33.075 229.2 1.1 154.2 12.5
2001-12-04 12:47:02 51°6.748 2°33.078 239.3 1.9 216.6 12.7
2001-12-04 12:48:02 51°6.745 2°32.955 254.3 5.8 257.1 12.9
2001-12-04 12:49:02 51°6.737 2°32.773 257 7.8 258.6 13
2001-12-04 12:50:02 51°6.708 2°32.65 262.5 2.2 262.7 13.2
2001-12-04 12:51:02 51°6.71 2°32.655 250.5 0.5 80.8 13.3
2001-12-04 12:52:02 51°6.71 2°32.677 247.3 1.1 88.6 13.4
2001-12-04 12:53:02 51°6.711 2°32.703 252 0.7 91.1 13.5
2001-12-04 12:54:02 51°6.71 2°32.715 252.8 0.3 99.3 13.4
2001-12-04 12:55:02 51°6.709 2°32.722 249.7 0.3 91.7 13.4
2001-12-04 12:56:02 51°6.705 2°32.735 242.8 0.5 111.6 13.3
2001-12-04 12:57:02 51°6.697 2°32.742 244.8 0.5 175 13.3
2001-12-04 12:58:02 51°6.695 2°32.742 261.2 0.1 18.6 13.2
2001-12-04 12:59:02 51°6.7 2°32.745 262.8 0.4 23.3 13.5
2001-12-04 13:00:02 51°6.7 2°32.76 236.7 0.9 103.9 13.2
2001-12-04 13:01:02 51°6.691 2°32.778 243.5 0.6 139.4 13.3
2001-12-04 13:02:02 51°6.69 2°32.789 253.7 0.4 88.2 13.2
2001-12-04 13:03:02 51°6.688 2°32.8 242 0.5 117.9 13.3
2001-12-04 13:04:02 51°6.677 2°32.812 228.3 1 152.3 13
2001-12-04 13:05:02 51°6.664 2°32.818 239.5 0.6 150.8 12.9
2001-12-04 13:06:02 51°6.657 2°32.832 237.5 0.8 113.7 12.7
2001-12-04 13:07:02 51°6.654 2°32.857 237 1 99.9 12.4
2001-12-04 13:08:02 51°6.649 2°32.884 228.8 1.1 108 12.3
2001-12-04 13:09:02 51°6.617 2°32.782 253.8 8.4 256.2 12.1
2001-12-04 13:10:02 51°6.539 2°32.529 255.7 11.2 253.6 12.2
2001-12-04 13:11:02 51°6.507 2°32.235 250 11.3 249.2 13.2
2001-12-04 13:12:02 51°6.464 2°31.943 259.8 11.4 262.4 14
2001-12-04 13:13:02 51°6.402 2°31.658 259.3 11.5 256.9 14.5
2001-12-04 13:14:02 51°6.376 2°31.358 258.2 11.4 255.6 15
2001-12-04 13:15:02 51°6.361 2°31.052 260 11.6 259.9 14.2
2001-12-04 13:16:02 51°6.417 2°30.792 311.3 9.5 314.7 11.5
2001-12-04 13:17:02 51°6.511 2°30.679 310.5 5.7 323.6 10.9
2001-12-04 13:18:02 51°6.572 2°30.598 309 4.5 322.2 11.1
2001-12-04 13:19:02 51°6.644 2°30.547 322.3 4.7 340.7 11.3
2001-12-04 13:20:02 51°6.745 2°30.497 345.3 9.5 349 11.8
2001-12-04 13:21:02 51°6.916 2°30.654 52.7 14 52 12.7
2001-12-04 13:22:02 51°7.062 2°30.969 59.5 14.8 57.2 12.9
2001-12-04 13:23:02 51°7.193 2°31.299 61.7 14.8 61.1 13.4
2001-12-04 13:24:02 51°7.334 2°31.627 57 15 53.6 13.2
2001-12-04 13:25:02 51°7.454 2°31.975 75.5 15 71 13.7
2001-12-04 13:26:02 51°7.467 2°32.349 104.2 13.4 98.2 11.5
2001-12-04 13:27:02 51°7.437 2°32.654 115.2 11.1 106 10.1
2001-12-04 13:28:02 51°7.398 2°32.884 120.8 7.9 107.2 9.7
2001-12-04 13:29:02 51°7.353 2°33.053 130.8 6.6 115.7 9.2
2001-12-04 13:30:02 51°7.411 2°33.23 17.8 9.3 24.3 8.9
2001-12-04 13:31:02 51°7.504 2°33.146 285.8 4.6 300.9 9.9
2001-12-04 13:32:02 51°7.522 2°33.141 254 1.1 50.6 10
2001-12-04 13:33:02 51°7.525 2°33.164 224.7 0.7 114.5 -999
2001-12-04 13:34:02 51°7.513 2°33.16 244.7 0.5 215.7 9.7
2001-12-04 13:35:02 51°7.515 2°33.162 257.5 0.4 31.7 10
2001-12-04 13:36:02 51°7.524 2°33.172 266 0.8 46.7 9.7
2001-12-04 13:37:02 51°7.534 2°33.18 263.2 0.6 4.5 9.9
2001-12-04 13:38:02 51°7.541 2°33.178 255.7 0.3 338.9 10
2001-12-04 13:39:02 51°7.541 2°33.177 244.3 0.2 194.3 9.9
2001-12-04 13:40:02 51°7.536 2°33.175 237.5 0.4 198.9 9.9
2001-12-04 13:41:02 51°7.528 2°33.17 241.7 0.4 206.9 9.9
2001-12-04 13:42:02 51°7.524 2°33.162 254.3 0.4 267.9 10
2001-12-04 13:43:02 51°7.544 2°33.071 296.7 7.9 298.5 10.3
2001-12-04 13:44:02 51°7.72 2°33.003 12.5 13.3 12.6 11.8
2001-12-04 13:45:02 51°7.911 2°33.23 35.8 14.7 36.3 13.6
2001-12-04 13:46:03 51°8.115 2°33.47 39.7 15.1 39.1 16.2
2001-12-04 13:47:02 51°8.305 2°33.727 40.2 15.3 40.4 19.5
2001-12-04 13:48:03 51°8.472 2°34.04 59 15.4 57.1 20.1
2001-12-04 13:49:02 51°8.606 2°34.383 62.2 15.4 58.4 20.3
2001-12-04 13:50:02 51°8.748 2°34.73 61.7 15.5 59 19.7
2001-12-04 13:51:02 51°8.871 2°35.095 64.7 15.7 62 19.6
2001-12-04 13:52:02 51°8.995 2°35.458 62.2 15.6 61.7 19.4
2001-12-04 13:53:02 51°9.118 2°35.819 66.7 15.3 65 19.4
2001-12-04 13:54:02 51°9.231 2°36.192 67.3 15.7 64.2 19.2
2001-12-04 13:55:02 51°9.349 2°36.563 65.2 15.6 62.4 19.1
2001-12-04 13:56:02 51°9.466 2°36.93 66 15.4 62.1 18.8
2001-12-04 13:57:02 51°9.582 2°37.3 69 15.5 64.7 18.9
2001-12-04 13:58:02 51°9.687 2°37.683 67.3 15.8 66.1 18.4
2001-12-04 13:59:02 51°9.792 2°38.061 66.5 15.8 64.4 18
2001-12-04 14:00:02 51°9.902 2°38.439 70.2 15.8 68.3 17.8
2001-12-04 14:01:02 51°10.006 2°38.821 68.2 15.9 65.3 17.5
2001-12-04 14:02:02 51°10.117 2°39.195 69.2 15.5 67.3 17.4
2001-12-04 14:03:02 51°10.218 2°39.574 67.7 15.4 66.6 16.9
2001-12-04 14:04:02 51°10.322 2°39.95 67.3 15.6 65.6 16.5
2001-12-04 14:05:02 51°10.425 2°40.323 69.3 15.2 66.4 16.2
2001-12-04 14:06:02 51°10.52 2°40.704 69.8 15.7 67.6 15.9
2001-12-04 14:07:02 51°10.612 2°41.086 69 15.6 67.8 15.7
2001-12-04 14:08:02 51°10.709 2°41.468 72.7 15.6 69.7 15.8
2001-12-04 14:09:02 51°10.803 2°41.848 70.2 15.5 67.6 15.9
2001-12-04 14:10:02 51°10.937 2°42.136 13.5 13 20.4 15.8
2001-12-04 14:11:02 51°11.079 2°41.976 291 11.4 294.5 15.7
2001-12-04 14:12:02 51°11.161 2°41.728 291.7 10.3 296.6 15.4
2001-12-04 14:13:02 51°11.243 2°41.49 296.2 10.2 301.1 15.2
2001-12-04 14:14:02 51°11.393 2°41.405 23.5 12.4 23.8 15.2
2001-12-04 14:15:02 51°11.446 2°41.745 92.2 14.9 86.4 14.7
2001-12-04 14:16:02 51°11.394 2°42.127 104.3 15 98.6 14.8
2001-12-04 14:17:02 51°11.313 2°42.475 140.2 12.4 128.7 15
2001-12-04 14:18:02 51°11.21 2°42.735 127.3 11.8 117.9 16
2001-12-04 14:19:02 51°11.126 2°43.017 116.5 11.8 110.9 16
2001-12-04 14:20:02 51°11.133 2°43.395 82.7 15.2 79.1 15.8
2001-12-04 14:21:02 51°11.189 2°43.794 81 15.5 77.4 15.7
2001-12-04 14:22:02 51°11.25 2°44.183 76.2 15 73.9 15.8
2001-12-04 14:23:02 51°11.322 2°44.573 78.8 15.4 75.7 15.7
2001-12-04 14:24:02 51°11.384 2°44.966 78.5 15.3 75.5 15.5
2001-12-04 14:25:02 51°11.464 2°45.342 64.8 14.9 63.8 15.5
2001-12-04 14:26:02 51°11.576 2°45.701 69 15.2 67.4 15.7
2001-12-04 14:27:02 51°11.669 2°46.077 72.5 15.3 68 15.8
2001-12-04 14:28:02 51°11.777 2°46.443 68.2 15.2 63.7 15.9
2001-12-04 14:29:02 51°11.875 2°46.812 69 15.1 68.1 15.7
2001-12-04 14:30:02 51°11.998 2°47.158 60.5 15 57.6 15.9
2001-12-04 14:31:02 51°12.123 2°47.511 64.2 15.4 60.3 15.8
2001-12-04 14:32:02 51°12.241 2°47.871 66.5 15.4 61.6 15.8
2001-12-04 14:33:02 51°12.361 2°48.234 71.2 15.5 64.5 15.4
2001-12-04 14:34:02 51°12.489 2°48.584 62.5 15.4 59.3 15.5
2001-12-04 14:35:03 51°12.603 2°48.949 65.3 15.1 60.5 15.2
2001-12-04 14:36:02 51°12.721 2°49.297 65 15.2 61.6 15.1
2001-12-04 14:37:02 51°12.844 2°49.655 63.8 15.4 59.6 14.9
2001-12-04 14:38:02 51°12.966 2°50.014 65.8 15.4 62.3 14.7
2001-12-04 14:39:02 51°13.093 2°50.369 58.8 15.5 56.8 14.6
2001-12-04 14:40:02 51°13.212 2°50.727 67.5 15.4 63.1 14.5
2001-12-04 14:41:02 51°13.324 2°51.095 71 15.1 65.8 14.3
2001-12-04 14:42:03 51°13.433 2°51.466 65.8 15.3 61.9 14.1
2001-12-04 14:43:02 51°13.545 2°51.825 69.5 15.4 66.2 13.9
2001-12-04 14:44:02 51°13.662 2°52.184 61.8 15.1 60.9 13.8
2001-12-04 14:45:02 51°13.778 2°52.537 66.8 15 62.9 13.7
2001-12-04 14:46:02 51°13.886 2°52.898 68.2 15.2 63.2 13.2
2001-12-04 14:47:02 51°14.01 2°53.242 64 15 60.4 13
2001-12-04 14:48:02 51°14.139 2°53.595 61.7 15.3 59.5 12.7
2001-12-04 14:49:02 51°14.274 2°53.933 63 15 59.7 12.6
2001-12-04 14:50:02 51°14.365 2°54.299 90.2 14.7 84.3 12.6
2001-12-04 14:51:02 51°14.369 2°54.664 96 13.8 90.4 13
2001-12-04 14:52:02 51°14.359 2°55.018 103 12.6 97.3 13
2001-12-04 14:53:02 51°14.263 2°55.269 133.8 10.7 130.7 13.4
2001-12-04 14:54:02 51°14.131 2°55.412 157.2 8.5 154.7 13.2
2001-12-04 14:55:02 51°14.003 2°55.496 158.3 8.7 158.3 13
2001-12-04 14:56:02 51°13.862 2°55.599 156.2 9.2 153.9 12.5
2001-12-04 14:57:02 51°13.772 2°55.701 136.7 5.3 135.8 12.8
2001-12-04 14:58:02 51°13.731 2°55.784 133.5 3.6 130.2 13.5
2001-12-04 14:59:02 51°13.7 2°55.845 123.3 2.6 122.2 12.7
2001-12-04 15:00:02 51°13.686 2°55.903 105.3 1.1 104.4 10.9